Time;durP1;ratioP1;P1;durP2;ratioP2;P2;SDS_P1;SDS_P2;PMS_P1;PMS_P2;Temp;Humidity;BMP_temperature;BMP_pressure;BME280_temperature;BME280_humidity;BME280_pressure;Samples;Min_cycle;Max_cycle;Signal;HPM_P1;HPM_P2
2022/07/14 00:01:45;;;;;;;7.70;1.92;;;19.10;96.40;;;;;;4997372;28;20674;-85
2022/07/14 00:04:11;;;;;;;4.40;1.52;;;19.00;96.70;;;;;;4997094;28;20180;-84
2022/07/14 00:06:39;;;;;;;10.32;1.98;;;18.90;96.70;;;;;;4997184;28;20207;-85
2022/07/14 00:09:04;;;;;;;9.68;2.45;;;18.90;96.70;;;;;;4997147;28;20251;-83
2022/07/14 00:14:05;;;;;;;10.88;1.92;;;18.90;96.80;;;;;;5299271;23;20935;-84
2022/07/14 00:16:31;;;;;;;8.77;1.80;;;18.90;97.00;;;;;;4976302;28;20247;-87
2022/07/14 00:18:57;;;;;;;9.98;2.53;;;18.80;97.30;;;;;;4990524;28;20269;-83
2022/07/14 00:21:22;;;;;;;9.30;2.10;;;18.80;97.40;;;;;;4995829;28;20215;-84
2022/07/14 00:23:48;;;;;;;8.05;1.98;;;18.80;97.50;;;;;;4995571;28;20179;-84
2022/07/14 00:26:14;;;;;;;8.82;1.90;;;18.70;97.90;;;;;;4995468;28;20195;-85
2022/07/14 00:28:40;;;;;;;7.22;2.20;;;18.70;97.80;;;;;;4997008;28;20184;-85
2022/07/14 00:31:08;;;;;;;8.90;1.95;;;18.60;97.90;;;;;;4996824;28;20183;-85
2022/07/14 00:33:34;;;;;;;10.05;1.83;;;18.60;98.00;;;;;;4996919;28;20187;-83
2022/07/14 00:36:00;;;;;;;10.40;2.28;;;18.50;98.20;;;;;;4995495;28;20246;-83
2022/07/14 00:38:25;;;;;;;6.28;1.98;;;18.50;98.40;;;;;;4996610;28;20595;-83
2022/07/14 00:40:51;;;;;;;8.45;2.08;;;18.50;98.50;;;;;;4982459;28;20200;-89
2022/07/14 00:43:17;;;;;;;8.63;2.30;;;18.40;98.50;;;;;;4976740;28;20176;-84
2022/07/14 00:45:43;;;;;;;16.25;2.58;;;18.30;98.80;;;;;;4975240;28;20185;-86
2022/07/14 00:48:12;;;;;;;10.82;2.03;;;18.20;98.90;;;;;;4975962;28;20639;-84
2022/07/14 00:50:41;;;;;;;10.57;2.33;;;18.10;98.90;;;;;;4976871;28;20176;-84
2022/07/14 00:53:07;;;;;;;9.52;2.28;;;18.10;98.90;;;;;;4975712;28;20604;-85
2022/07/14 00:55:35;;;;;;;10.98;2.15;;;18.00;99.00;;;;;;4976836;28;20328;-85
2022/07/14 00:58:01;;;;;;;10.10;2.15;;;17.90;99.20;;;;;;4976683;28;20509;-88
2022/07/14 01:00:27;;;;;;;16.00;2.63;;;17.90;99.50;;;;;;4975555;28;20180;-85
2022/07/14 01:02:53;;;;;;;13.63;2.25;;;17.80;99.70;;;;;;4975543;28;20180;-85
2022/07/14 01:05:19;;;;;;;12.23;2.30;;;17.80;99.60;;;;;;4976998;28;20173;-85
2022/07/14 01:07:45;;;;;;;10.15;2.40;;;17.70;99.80;;;;;;4975695;28;20216;-84
2022/07/14 01:10:11;;;;;;;10.15;2.28;;;17.70;99.80;;;;;;4975711;28;20204;-85
2022/07/14 01:12:38;;;;;;;5.47;1.85;;;17.70;99.70;;;;;;4975660;28;20574;-86
2022/07/14 01:15:04;;;;;;;7.97;1.98;;;17.70;99.40;;;;;;4976268;28;20193;-84
2022/07/14 01:17:31;;;;;;;9.00;2.15;;;17.60;99.10;;;;;;4976677;28;20645;-84
2022/07/14 01:19:57;;;;;;;8.25;2.00;;;17.50;99.50;;;;;;4975424;28;20188;-83
2022/07/14 01:22:22;;;;;;;15.07;2.03;;;17.50;99.10;;;;;;4976511;28;20203;-84
2022/07/14 01:24:48;;;;;;;9.13;2.10;;;17.40;99.20;;;;;;4975277;28;20280;-87
2022/07/14 01:27:14;;;;;;;11.45;2.05;;;17.40;99.30;;;;;;4976392;28;20200;-84
2022/07/14 01:29:39;;;;;;;10.43;2.25;;;17.40;99.20;;;;;;4974734;28;20181;-84
2022/07/14 01:32:05;;;;;;;11.20;2.33;;;17.30;99.20;;;;;;4974940;28;20531;-84
2022/07/14 01:34:31;;;;;;;11.68;2.17;;;17.30;99.20;;;;;;4976095;28;20169;-83
2022/07/14 01:36:57;;;;;;;9.15;2.03;;;17.30;99.30;;;;;;4974677;28;20188;-84
2022/07/14 01:39:22;;;;;;;9.88;2.25;;;17.30;99.30;;;;;;4974891;28;20184;-84
2022/07/14 01:41:49;;;;;;;11.88;2.13;;;17.30;99.20;;;;;;4970831;28;20535;-88
2022/07/14 01:44:16;;;;;;;9.82;1.65;;;17.30;99.20;;;;;;4965944;28;20200;-86
2022/07/14 01:46:42;;;;;;;15.32;2.45;;;17.20;99.30;;;;;;4966533;28;20216;-88
2022/07/14 01:49:08;;;;;;;8.10;1.85;;;17.10;99.20;;;;;;4974952;28;20291;-84
2022/07/14 01:51:34;;;;;;;10.52;2.30;;;17.10;99.60;;;;;;4974926;28;20192;-84
2022/07/14 01:54:00;;;;;;;11.13;1.83;;;17.10;99.70;;;;;;4976238;28;20168;-84
2022/07/14 01:56:26;;;;;;;8.90;1.83;;;17.10;99.60;;;;;;4975058;28;20181;-86
2022/07/14 01:58:52;;;;;;;13.13;2.70;;;17.10;99.70;;;;;;4975963;28;20260;-83
2022/07/14 02:04:02;;;;;;;11.95;2.13;;;17.10;99.50;;;;;;4975907;28;20180;-84
2022/07/14 02:06:29;;;;;;;13.80;2.10;;;17.00;99.80;;;;;;4976054;28;20183;-83
2022/07/14 02:08:56;;;;;;;8.48;1.77;;;17.10;99.90;;;;;;4976162;28;20252;-87
2022/07/14 02:14:06;;;;;;;9.60;2.10;;;17.00;99.90;;;;;;4975490;28;20332;-83
2022/07/14 02:16:33;;;;;;;11.00;1.92;;;17.00;99.90;;;;;;4974774;28;20684;-87
2022/07/14 02:18:59;;;;;;;9.68;2.33;;;16.90;99.90;;;;;;4984045;28;20193;-86
2022/07/14 02:21:26;;;;;;;7.93;1.63;;;16.80;99.90;;;;;;4975193;28;20184;-88
2022/07/14 02:23:52;;;;;;;8.73;1.77;;;16.70;99.90;;;;;;4976101;28;20661;-87
2022/07/14 02:26:24;;;;;;;6.38;1.83;;;16.80;99.90;;;;;;4974512;28;20200;-86
2022/07/14 02:28:49;;;;;;;7.82;1.90;;;16.80;99.90;;;;;;4974277;28;20187;-88
2022/07/14 02:31:16;;;;;;;11.70;2.45;;;16.70;99.90;;;;;;4975889;28;20169;-86
2022/07/14 02:33:42;;;;;;;7.82;2.00;;;16.70;99.90;;;;;;4974706;28;20192;-88
2022/07/14 02:36:08;;;;;;;10.25;2.03;;;16.60;99.90;;;;;;4975327;28;20242;-87
2022/07/14 02:38:34;;;;;;;11.55;2.28;;;16.60;99.90;;;;;;4975933;28;20611;-87
2022/07/14 02:41:00;;;;;;;9.85;2.30;;;16.60;99.90;;;;;;4974855;28;20176;-88
2022/07/14 02:43:26;;;;;;;16.05;2.60;;;16.50;99.90;;;;;;4975352;28;20181;-87
2022/07/14 02:45:53;;;;;;;10.82;2.15;;;16.50;99.90;;;;;;4975637;28;20188;-87
2022/07/14 02:48:18;;;;;;;13.60;2.15;;;16.40;99.90;;;;;;4974642;28;20214;-84
2022/07/14 02:50:44;;;;;;;9.95;2.33;;;16.40;99.90;;;;;;4974503;28;20177;-84
2022/07/14 02:53:10;;;;;;;9.88;1.85;;;16.40;99.90;;;;;;4974419;28;20294;-83
2022/07/14 02:55:36;;;;;;;5.78;1.52;;;16.40;99.90;;;;;;4978687;28;20628;-87
2022/07/14 02:58:04;;;;;;;10.73;1.92;;;16.40;99.90;;;;;;4978247;28;20689;-88
2022/07/14 03:00:30;;;;;;;12.48;2.08;;;16.30;99.90;;;;;;4979399;28;20172;-90
2022/07/14 03:02:56;;;;;;;9.98;2.58;;;16.20;99.90;;;;;;4978685;28;20184;-89
2022/07/14 03:05:23;;;;;;;11.18;2.58;;;16.30;99.90;;;;;;4979383;28;20235;-87
2022/07/14 03:07:50;;;;;;;11.52;1.90;;;16.40;99.90;;;;;;4977937;28;20677;-87
2022/07/14 03:10:17;;;;;;;6.13;1.65;;;16.30;99.90;;;;;;4978143;28;20686;-87
2022/07/14 03:12:44;;;;;;;10.20;2.10;;;16.20;99.90;;;;;;4979129;28;20203;-87
2022/07/14 03:15:10;;;;;;;6.38;1.95;;;16.30;99.90;;;;;;4977609;28;20188;-87
2022/07/14 03:17:38;;;;;;;11.98;2.03;;;16.30;99.90;;;;;;4979346;28;20691;-87
2022/07/14 03:20:06;;;;;;;8.88;2.10;;;16.20;99.90;;;;;;4979167;28;20518;-83
2022/07/14 03:22:32;;;;;;;7.75;1.98;;;16.10;99.90;;;;;;4979231;28;20295;-83
2022/07/14 03:24:58;;;;;;;15.73;2.45;;;16.20;99.90;;;;;;4977761;28;20181;-87
2022/07/14 03:27:25;;;;;;;11.13;2.05;;;16.10;99.90;;;;;;4977526;28;20224;-88
2022/07/14 03:29:51;;;;;;;11.02;2.42;;;16.10;99.90;;;;;;4977772;28;20215;-88
2022/07/14 03:32:16;;;;;;;12.38;2.35;;;16.10;99.90;;;;;;4978059;28;20176;-86
2022/07/14 03:34:42;;;;;;;10.05;2.15;;;16.10;99.90;;;;;;4978010;28;20279;-87
2022/07/14 03:37:09;;;;;;;9.82;2.13;;;16.00;99.90;;;;;;4978919;28;20189;-87
2022/07/14 03:39:36;;;;;;;8.10;2.10;;;16.00;99.90;;;;;;4977858;28;20179;-88
2022/07/14 03:42:02;;;;;;;8.70;1.90;;;16.00;99.90;;;;;;4978946;28;20620;-87
2022/07/14 03:44:28;;;;;;;9.32;2.20;;;16.00;99.90;;;;;;4978447;28;20195;-86
2022/07/14 03:46:53;;;;;;;13.48;2.55;;;16.00;99.90;;;;;;4977506;28;20211;-84
2022/07/14 03:49:19;;;;;;;9.70;2.15;;;16.00;99.90;;;;;;4978798;28;20169;-84
2022/07/14 03:51:45;;;;;;;6.13;1.58;;;16.00;99.90;;;;;;4978361;28;20169;-84
2022/07/14 03:54:10;;;;;;;8.73;1.50;;;16.00;99.90;;;;;;4976833;28;20196;-83
2022/07/14 03:56:37;;;;;;;8.65;2.20;;;16.00;99.90;;;;;;4976684;28;20184;-84
2022/07/14 03:59:06;;;;;;;10.38;2.25;;;16.10;99.90;;;;;;4976747;28;20272;-83
2022/07/14 04:01:32;;;;;;;9.75;1.85;;;16.10;99.90;;;;;;4976759;28;20200;-84
2022/07/14 04:03:57;;;;;;;12.52;2.55;;;16.20;99.90;;;;;;4976810;28;20219;-83
2022/07/14 04:06:23;;;;;;;10.57;2.42;;;16.20;99.90;;;;;;4977378;28;20235;-83
2022/07/14 04:08:49;;;;;;;13.30;2.92;;;16.30;99.90;;;;;;4976711;28;20185;-83
2022/07/14 04:11:15;;;;;;;13.85;2.22;;;16.30;99.90;;;;;;4976552;28;20188;-84
2022/07/14 04:13:41;;;;;;;9.68;2.25;;;16.30;99.90;;;;;;4977305;28;20239;-84
2022/07/14 04:16:07;;;;;;;10.43;1.90;;;16.30;99.90;;;;;;4977882;28;20250;-87
2022/07/14 04:18:33;;;;;;;8.38;1.92;;;16.30;99.90;;;;;;4977773;28;20184;-83
2022/07/14 04:20:58;;;;;;;13.35;2.70;;;16.30;99.90;;;;;;4976333;28;20180;-86
2022/07/14 04:23:24;;;;;;;11.85;2.03;;;16.30;99.90;;;;;;4976061;28;20238;-83
2022/07/14 04:25:50;;;;;;;15.32;2.33;;;16.30;99.90;;;;;;4977426;28;20523;-85
2022/07/14 04:28:16;;;;;;;10.52;1.98;;;16.30;99.90;;;;;;4976157;28;20631;-84
2022/07/14 04:30:42;;;;;;;16.85;2.85;;;16.30;99.90;;;;;;4976263;28;20187;-88
2022/07/14 04:33:11;;;;;;;10.95;2.35;;;16.30;99.90;;;;;;4977504;28;20315;-84
2022/07/14 04:35:38;;;;;;;7.55;2.15;;;16.30;99.90;;;;;;4976066;28;20192;-85
2022/07/14 04:38:04;;;;;;;11.23;2.35;;;16.30;99.90;;;;;;4958963;28;20180;-81
2022/07/14 04:40:29;;;;;;;12.65;2.30;;;16.30;99.90;;;;;;4980289;28;20188;-83
2022/07/14 04:42:55;;;;;;;10.27;2.20;;;16.20;99.90;;;;;;4993288;28;20188;-85
2022/07/14 04:45:22;;;;;;;12.82;2.60;;;16.20;99.90;;;;;;4975845;28;20177;-85
2022/07/14 04:47:49;;;;;;;12.63;2.45;;;16.20;99.90;;;;;;4976062;28;20265;-85
2022/07/14 04:52:59;;;;;;;12.45;2.25;;;16.40;99.90;;;;;;4977281;28;20227;-86
2022/07/14 04:55:24;;;;;;;10.63;2.35;;;16.50;99.90;;;;;;4975854;28;20180;-83
2022/07/14 04:57:50;;;;;;;15.05;2.30;;;16.60;99.90;;;;;;4977394;28;20196;-84
2022/07/14 05:00:16;;;;;;;9.70;2.03;;;16.70;99.90;;;;;;4975650;28;20255;-83
2022/07/14 05:02:42;;;;;;;12.10;2.63;;;16.70;99.90;;;;;;4977144;28;20177;-89
2022/07/14 05:05:08;;;;;;;9.68;2.10;;;16.70;99.90;;;;;;4976724;28;20252;-83
2022/07/14 05:07:34;;;;;;;14.35;2.53;;;16.70;99.90;;;;;;4975496;28;20272;-82
2022/07/14 05:10:00;;;;;;;7.75;1.67;;;16.60;99.90;;;;;;4975766;28;20173;-85
2022/07/14 05:12:26;;;;;;;9.70;2.03;;;16.60;99.90;;;;;;4975220;28;20716;-82
2022/07/14 05:14:52;;;;;;;12.45;2.78;;;16.60;99.90;;;;;;4974827;28;20203;-86
2022/07/14 05:17:18;;;;;;;7.05;1.77;;;16.60;99.90;;;;;;4974411;28;20267;-83
2022/07/14 05:19:47;;;;;;;11.32;2.65;;;16.70;99.90;;;;;;4975244;28;20316;-82
2022/07/14 05:22:13;;;;;;;10.40;2.22;;;16.70;99.90;;;;;;4976523;28;20177;-83
2022/07/14 05:24:39;;;;;;;9.80;2.35;;;16.80;99.90;;;;;;4976505;28;20496;-83
2022/07/14 05:27:05;;;;;;;10.43;2.33;;;16.80;99.90;;;;;;4975189;28;20653;-83
2022/07/14 05:29:31;;;;;;;10.70;2.10;;;16.90;99.90;;;;;;4975795;28;20244;-83
2022/07/14 05:32:00;;;;;;;8.20;2.03;;;16.90;99.90;;;;;;4975014;28;20176;-86
2022/07/14 05:34:26;;;;;;;11.63;2.30;;;17.00;99.90;;;;;;4975989;28;20169;-83
2022/07/14 05:36:52;;;;;;;9.15;2.10;;;17.00;99.90;;;;;;4976092;28;20742;-84
2022/07/14 05:39:18;;;;;;;10.07;2.20;;;17.00;99.90;;;;;;4974826;28;20187;-82
2022/07/14 05:41:43;;;;;;;10.65;2.00;;;17.10;99.90;;;;;;4975927;28;20653;-83
2022/07/14 05:44:09;;;;;;;11.55;2.15;;;17.10;99.90;;;;;;4972881;28;20505;-82
2022/07/14 05:46:35;;;;;;;12.32;2.17;;;17.10;99.90;;;;;;4973965;28;20508;-83
2022/07/14 05:49:01;;;;;;;15.48;3.28;;;17.10;99.90;;;;;;4975521;28;20181;-82
2022/07/14 05:51:26;;;;;;;6.30;1.38;;;17.10;99.90;;;;;;4975745;28;20181;-83
2022/07/14 05:53:52;;;;;;;7.53;1.85;;;17.10;99.90;;;;;;4974435;28;20251;-85
2022/07/14 05:56:18;;;;;;;11.98;1.95;;;17.10;99.90;;;;;;4975906;28;20176;-85
2022/07/14 05:58:45;;;;;;;6.32;1.48;;;17.10;99.90;;;;;;4974314;28;20638;-86
2022/07/14 06:01:12;;;;;;;12.52;2.30;;;17.00;99.90;;;;;;4973493;28;20694;-84
2022/07/14 06:03:38;;;;;;;7.47;1.67;;;17.00;99.90;;;;;;4973226;28;20181;-83
2022/07/14 06:06:06;;;;;;;8.10;1.85;;;17.00;99.90;;;;;;4975115;28;20260;-85
2022/07/14 06:08:32;;;;;;;9.30;1.58;;;16.90;99.90;;;;;;4973788;28;20358;-82
2022/07/14 06:10:59;;;;;;;8.90;1.55;;;16.80;99.90;;;;;;4975453;28;20164;-84
2022/07/14 06:13:26;;;;;;;6.80;1.48;;;16.80;99.90;;;;;;4973818;28;20243;-84
2022/07/14 06:15:53;;;;;;;6.05;1.40;;;16.90;99.90;;;;;;4973063;28;20188;-84
2022/07/14 06:18:19;;;;;;;8.05;1.70;;;16.90;99.90;;;;;;4975132;28;20259;-83
2022/07/14 06:20:48;;;;;;;7.88;1.55;;;17.00;99.60;;;;;;4973189;28;20634;-85
2022/07/14 06:23:14;;;;;;;8.32;1.40;;;17.00;99.40;;;;;;4973560;28;20509;-83
2022/07/14 06:25:41;;;;;;;5.47;1.05;;;17.00;98.80;;;;;;4968862;28;20184;-82
2022/07/14 06:28:08;;;;;;;7.53;1.60;;;17.10;98.90;;;;;;4963610;28;20710;-84
2022/07/14 06:30:34;;;;;;;8.43;1.85;;;17.10;98.80;;;;;;4962897;28;20169;-83
2022/07/14 06:33:00;;;;;;;9.35;1.52;;;17.10;99.00;;;;;;4964679;28;20173;-82
2022/07/14 06:35:26;;;;;;;7.25;1.60;;;17.10;98.50;;;;;;4953778;29;20188;-82
2022/07/14 06:37:52;;;;;;;5.70;1.30;;;17.20;98.90;;;;;;4955662;29;20189;-84
2022/07/14 06:40:18;;;;;;;7.55;1.45;;;17.30;98.70;;;;;;4969894;28;20212;-84
2022/07/14 06:42:44;;;;;;;9.93;1.60;;;17.30;99.00;;;;;;4974950;28;20216;-82
2022/07/14 06:45:11;;;;;;;7.07;1.60;;;17.40;98.40;;;;;;4974293;28;20212;-83
2022/07/14 06:47:36;;;;;;;8.40;1.60;;;17.40;97.90;;;;;;4973430;28;20239;-86
2022/07/14 06:50:04;;;;;;;7.22;1.60;;;17.50;97.60;;;;;;4974709;28;20223;-85
2022/07/14 06:52:29;;;;;;;5.55;1.45;;;17.50;97.10;;;;;;4973658;28;20654;-84
2022/07/14 06:54:58;;;;;;;6.88;1.50;;;17.50;97.50;;;;;;4974033;28;20212;-83
2022/07/14 06:57:24;;;;;;;8.45;1.55;;;17.70;97.30;;;;;;4967059;28;20183;-84
2022/07/14 06:59:49;;;;;;;7.30;1.42;;;17.70;97.10;;;;;;4973545;28;20271;-83
2022/07/14 07:02:15;;;;;;;13.55;1.80;;;17.80;97.20;;;;;;4972998;28;20573;-85
2022/07/14 07:04:41;;;;;;;8.25;1.80;;;18.00;96.60;;;;;;4973291;28;20179;-84
2022/07/14 07:07:07;;;;;;;9.55;1.67;;;18.00;96.00;;;;;;4974842;28;20215;-85
2022/07/14 07:09:32;;;;;;;10.13;2.13;;;18.20;95.90;;;;;;4988250;28;20279;-85
2022/07/14 07:11:58;;;;;;;7.93;1.38;;;18.20;95.50;;;;;;4974210;28;20219;-89
2022/07/14 07:14:24;;;;;;;5.40;1.70;;;18.40;95.70;;;;;;4972473;28;20703;-86
2022/07/14 07:16:50;;;;;;;4.40;1.20;;;18.40;95.40;;;;;;4971872;28;20181;-83
2022/07/14 07:19:17;;;;;;;7.35;1.77;;;18.60;95.40;;;;;;4976665;28;20191;-85
2022/07/14 07:21:43;;;;;;;4.75;1.08;;;18.70;95.10;;;;;;4972866;28;20207;-83
2022/07/14 07:24:09;;;;;;;14.23;2.50;;;18.90;95.10;;;;;;4973377;28;20284;-83
2022/07/14 07:26:38;;;;;;;9.18;1.70;;;19.10;94.40;;;;;;4974191;28;20191;-82
2022/07/14 07:29:08;;;;;;;9.05;1.35;;;19.10;94.20;;;;;;4974487;28;20562;-85
2022/07/14 07:31:34;;;;;;;6.05;1.35;;;19.10;94.30;;;;;;4977081;28;20570;-83
2022/07/14 07:34:00;;;;;;;5.95;1.15;;;19.30;95.50;;;;;;4986059;28;20184;-83
2022/07/14 07:36:26;;;;;;;7.57;1.38;;;19.50;94.80;;;;;;4978902;28;20504;-85
2022/07/14 07:38:52;;;;;;;10.43;1.67;;;19.50;94.20;;;;;;4973163;28;20191;-86
2022/07/14 07:41:18;;;;;;;4.53;1.00;;;19.20;93.70;;;;;;4981425;28;20191;-86
2022/07/14 07:43:43;;;;;;;10.90;1.70;;;19.00;94.10;;;;;;4990061;28;20498;-87
2022/07/14 07:46:09;;;;;;;6.53;1.70;;;19.00;94.20;;;;;;4997496;28;20203;-84
2022/07/14 07:48:35;;;;;;;5.30;1.33;;;19.00;93.70;;;;;;4981051;28;20216;-83
2022/07/14 07:51:02;;;;;;;9.45;1.70;;;19.30;94.30;;;;;;4993635;28;20247;-84
2022/07/14 07:53:28;;;;;;;7.38;1.40;;;19.60;94.00;;;;;;4983791;28;20183;-84
2022/07/14 07:55:54;;;;;;;6.75;1.50;;;19.80;93.10;;;;;;4984969;28;20604;-85
2022/07/14 07:58:21;;;;;;;7.13;1.35;;;19.60;92.80;;;;;;4990729;28;20235;-86
2022/07/14 08:00:47;;;;;;;6.07;1.30;;;19.30;93.30;;;;;;4979973;28;20184;-83
2022/07/14 08:03:13;;;;;;;5.82;1.58;;;19.40;93.80;;;;;;4984648;28;20211;-83
2022/07/14 08:05:40;;;;;;;6.35;1.20;;;19.60;94.20;;;;;;4987169;28;20211;-86
2022/07/14 08:08:09;;;;;;;7.05;1.20;;;20.00;94.00;;;;;;4975578;28;20226;-85
2022/07/14 08:10:39;;;;;;;7.40;1.58;;;20.20;93.10;;;;;;4993917;28;20175;-83
2022/07/14 08:13:05;;;;;;;7.07;1.38;;;20.40;92.90;;;;;;4980897;28;20228;-84
2022/07/14 08:15:31;;;;;;;7.60;1.42;;;20.40;92.50;;;;;;4988335;28;20191;-87
2022/07/14 08:17:57;;;;;;;4.68;1.23;;;20.60;93.40;;;;;;4996058;28;20267;-83
2022/07/14 08:20:23;;;;;;;7.63;1.45;;;20.60;92.30;;;;;;4996317;28;20179;-87
2022/07/14 08:22:48;;;;;;;5.40;1.40;;;20.60;91.70;;;;;;4990193;28;20255;-85
2022/07/14 08:25:14;;;;;;;3.10;1.08;;;20.50;91.90;;;;;;4985737;28;20187;-86
2022/07/14 08:27:40;;;;;;;7.25;1.70;;;20.80;92.70;;;;;;4982466;28;20201;-85
2022/07/14 08:30:06;;;;;;;5.47;1.30;;;20.80;91.50;;;;;;4977736;28;20184;-88
2022/07/14 08:32:46;;;;;;;8.88;1.35;;;20.50;91.30;;;;;;4984243;28;20231;-85
2022/07/14 08:35:14;;;;;;;4.93;1.13;;;20.10;92.10;;;;;;4986698;28;20183;-86
2022/07/14 08:37:40;;;;;;;6.90;1.42;;;20.00;92.20;;;;;;4996437;28;20172;-86
2022/07/14 08:40:09;;;;;;;4.90;1.02;;;20.10;92.00;;;;;;4995677;28;20191;-84
2022/07/14 08:42:36;;;;;;;6.18;1.42;;;20.30;91.70;;;;;;4990440;28;20184;-85
2022/07/14 08:45:10;;;;;;;6.35;1.20;;;20.70;92.60;;;;;;4975140;28;20195;-86
2022/07/14 08:47:37;;;;;;;4.50;1.00;;;21.00;91.00;;;;;;4977050;28;20235;-91
2022/07/14 08:50:06;;;;;;;5.45;1.23;;;21.10;90.50;;;;;;4991756;28;20176;-87
2022/07/14 08:52:32;;;;;;;6.00;1.50;;;21.10;89.30;;;;;;4978977;28;20820;-85
2022/07/14 08:54:59;;;;;;;5.55;1.33;;;21.20;90.00;;;;;;4982967;28;20173;-90
2022/07/14 08:57:26;;;;;;;4.97;1.05;;;21.30;90.00;;;;;;4976914;28;20180;-84
2022/07/14 08:59:51;;;;;;;5.63;1.20;;;21.40;88.40;;;;;;4975399;28;20185;-88
2022/07/14 09:02:18;;;;;;;7.60;1.45;;;21.50;90.40;;;;;;4980274;28;20635;-85
2022/07/14 09:04:45;;;;;;;5.00;1.00;;;21.50;90.70;;;;;;4979430;28;20184;-85
2022/07/14 09:07:15;;;;;;;6.00;1.30;;;21.20;88.60;;;;;;4981397;28;20302;-84
2022/07/14 09:09:40;;;;;;;3.35;0.95;;;21.00;90.10;;;;;;4978105;28;20231;-87
2022/07/14 09:12:08;;;;;;;5.80;1.00;;;21.30;91.20;;;;;;4976669;28;20172;-90
2022/07/14 09:17:49;;;;;;;4.43;1.05;;;21.70;88.20;;;;;;4977307;28;20175;-84
2022/07/14 09:20:15;;;;;;;7.30;1.30;;;21.80;87.70;;;;;;4975291;28;20232;-85
2022/07/14 09:22:42;;;;;;;5.60;1.33;;;22.00;86.30;;;;;;4975651;28;20180;-86
2022/07/14 09:25:17;;;;;;;4.85;0.75;;;22.10;85.30;;;;;;4976677;28;20674;-84
2022/07/14 09:27:47;;;;;;;5.05;1.15;;;22.00;84.90;;;;;;4976611;28;20247;-88
2022/07/14 09:30:14;;;;;;;6.07;1.10;;;22.00;85.40;;;;;;4973238;28;20189;-88
2022/07/14 09:32:42;;;;;;;5.50;1.10;;;22.00;85.70;;;;;;4975877;28;20527;-88
2022/07/14 09:35:11;;;;;;;5.93;1.20;;;22.10;87.80;;;;;;4973883;28;20176;-85
2022/07/14 09:37:38;;;;;;;3.22;0.80;;;22.30;88.00;;;;;;4974567;28;20189;-85
2022/07/14 09:40:05;;;;;;;4.80;1.40;;;22.40;86.60;;;;;;4974097;28;20192;-83
2022/07/14 09:42:53;;;;;;;2.25;0.95;;;22.50;86.70;;;;;;4975816;28;20183;-85
2022/07/14 09:45:30;;;;;;;4.10;1.08;;;22.20;87.40;;;;;;4975863;28;20175;-86
2022/07/14 09:48:10;;;;;;;5.10;0.88;;;22.20;88.20;;;;;;4975707;28;20651;-84
2022/07/14 09:51:00;;;;;;;2.85;1.02;;;22.40;87.50;;;;;;4973199;28;20936;-86
2022/07/14 09:53:34;;;;;;;6.15;1.10;;;22.60;86.50;;;;;;4990575;28;20176;-88
2022/07/14 09:56:08;;;;;;;4.78;1.02;;;22.70;86.20;;;;;;4984012;28;20263;-85
2022/07/14 09:58:41;;;;;;;3.05;0.93;;;23.00;86.10;;;;;;4977206;28;20519;-87
2022/07/14 10:01:10;;;;;;;4.25;0.95;;;23.00;83.50;;;;;;4979259;28;20177;-85
2022/07/14 10:03:40;;;;;;;4.10;1.27;;;23.00;83.80;;;;;;4989991;28;20786;-85
2022/07/14 10:06:06;;;;;;;4.65;0.93;;;22.70;84.10;;;;;;4978507;28;20267;-86
2022/07/14 10:08:34;;;;;;;5.82;1.48;;;22.20;84.70;;;;;;4986237;28;20255;-85
2022/07/14 10:11:03;;;;;;;5.63;1.33;;;21.80;86.20;;;;;;4987123;28;20719;-85
2022/07/14 10:13:29;;;;;;;5.57;1.40;;;21.60;87.00;;;;;;4974610;28;20238;-87
2022/07/14 10:15:56;;;;;;;2.85;0.70;;;21.90;89.30;;;;;;4974655;28;20180;-87
2022/07/14 10:18:24;;;;;;;4.00;1.20;;;22.30;87.60;;;;;;4972000;28;20627;-86
2022/07/14 10:20:55;;;;;;;4.60;1.00;;;22.50;84.10;;;;;;4972802;28;20184;-86
2022/07/14 10:23:21;;;;;;;5.65;1.27;;;22.60;83.30;;;;;;4973322;28;20201;-89
2022/07/14 10:25:50;;;;;;;3.88;1.00;;;22.50;85.30;;;;;;4972966;28;20192;-88
2022/07/14 10:28:16;;;;;;;4.32;1.27;;;22.30;86.90;;;;;;4973489;28;20216;-85
2022/07/14 10:31:07;;;;;;;5.93;1.02;;;22.30;86.50;;;;;;4973555;28;20184;-84
2022/07/14 10:33:39;;;;;;;4.35;1.30;;;22.40;85.40;;;;;;4974613;28;20207;-89
2022/07/14 10:36:27;;;;;;;4.03;1.17;;;22.70;84.30;;;;;;4974551;28;20192;-88
2022/07/14 10:39:27;;;;;;;5.85;1.27;;;22.90;83.80;;;;;;4974411;28;20168;-87
2022/07/14 10:42:17;;;;;;;4.75;0.80;;;23.20;81.90;;;;;;4978845;28;20616;-87
2022/07/14 10:44:47;;;;;;;4.35;1.05;;;23.40;82.60;;;;;;4975091;28;20199;-87
2022/07/14 10:47:18;;;;;;;2.42;0.70;;;23.60;83.60;;;;;;4973591;28;20208;-86
2022/07/14 10:50:07;;;;;;;4.72;0.98;;;23.80;80.80;;;;;;4975389;28;20327;-88
2022/07/14 10:52:50;;;;;;;4.53;1.10;;;24.10;82.70;;;;;;4973897;28;20239;-89
2022/07/14 10:55:23;;;;;;;4.70;1.20;;;24.50;84.40;;;;;;4975155;28;20161;-88
2022/07/14 10:58:18;;;;;;;5.15;1.00;;;24.50;81.80;;;;;;4974434;28;20270;-87
2022/07/14 11:00:47;;;;;;;4.45;1.08;;;24.40;80.20;;;;;;4960270;28;20188;-86
2022/07/14 11:03:17;;;;;;;5.43;1.08;;;24.40;77.00;;;;;;4974717;28;20180;-87
2022/07/14 11:06:06;;;;;;;5.00;0.95;;;24.20;78.40;;;;;;4973185;28;20235;-87
2022/07/14 11:08:33;;;;;;;5.07;0.95;;;23.60;78.00;;;;;;4973699;28;20214;-87
2022/07/14 11:11:01;;;;;;;6.35;1.25;;;23.30;80.10;;;;;;4975112;28;20173;-88
2022/07/14 11:13:27;;;;;;;3.45;1.05;;;23.20;82.60;;;;;;4973727;28;20243;-85
2022/07/14 11:15:56;;;;;;;5.30;0.98;;;23.30;80.30;;;;;;4975411;28;20180;-90
2022/07/14 11:18:28;;;;;;;5.72;1.08;;;23.40;82.10;;;;;;4977861;28;20187;-88
2022/07/14 11:21:14;;;;;;;4.22;0.80;;;23.70;80.60;;;;;;4977735;28;20271;-87
2022/07/14 11:23:46;;;;;;;4.97;0.88;;;23.80;79.50;;;;;;4976828;28;20184;-85
2022/07/14 11:26:47;;;;;;;2.95;0.90;;;24.00;80.20;;;;;;4972199;28;20172;-87
2022/07/14 11:29:13;;;;;;;2.55;0.90;;;24.30;80.00;;;;;;4968061;28;20197;-87
2022/07/14 11:31:50;;;;;;;3.35;0.90;;;24.40;79.90;;;;;;4968648;28;20186;-89
2022/07/14 11:37:04;;;;;;;5.13;0.80;;;24.50;78.90;;;;;;4978418;28;20642;-90
2022/07/14 11:39:38;;;;;;;3.15;0.80;;;24.70;79.10;;;;;;4977166;28;20184;-90
2022/07/14 11:42:12;;;;;;;4.57;1.10;;;25.00;80.20;;;;;;4977090;28;20208;-87
2022/07/14 11:44:40;;;;;;;3.58;1.00;;;24.90;75.50;;;;;;4976939;28;20556;-86
2022/07/14 11:47:24;;;;;;;2.95;0.77;;;24.40;76.80;;;;;;4977464;28;20259;-86
2022/07/14 11:50:10;;;;;;;2.83;0.80;;;23.90;77.60;;;;;;4957432;29;20220;-85
2022/07/14 11:52:38;;;;;;;3.63;0.80;;;23.80;79.60;;;;;;4973602;28;20173;-86
2022/07/14 11:55:07;;;;;;;4.90;0.57;;;24.10;80.60;;;;;;4976938;28;20226;-88
2022/07/14 11:57:33;;;;;;;2.00;0.65;;;24.50;77.90;;;;;;4976939;28;20196;-86
2022/07/14 12:00:09;;;;;;;3.72;1.00;;;24.50;75.80;;;;;;4976781;28;20521;-87
2022/07/14 12:02:52;;;;;;;3.28;0.80;;;24.50;77.50;;;;;;4977149;28;20164;-86
2022/07/14 12:05:18;;;;;;;3.20;0.98;;;24.30;76.10;;;;;;4977862;28;20623;-86
2022/07/14 12:07:44;;;;;;;2.00;0.70;;;23.90;76.60;;;;;;4977567;28;20222;-85
2022/07/14 12:10:12;;;;;;;4.00;1.00;;;24.00;76.70;;;;;;4977112;28;20200;-84
2022/07/14 12:12:47;;;;;;;3.65;0.80;;;24.00;76.00;;;;;;4959982;28;20535;-85
2022/07/14 12:15:23;;;;;;;3.40;0.95;;;23.90;77.40;;;;;;4977252;28;20176;-85
2022/07/14 12:17:52;;;;;;;4.53;0.90;;;23.90;77.30;;;;;;4977118;28;20255;-89
2022/07/14 12:20:18;;;;;;;2.15;0.70;;;23.70;75.30;;;;;;4976268;28;20177;-86
2022/07/14 12:22:50;;;;;;;3.63;0.60;;;23.40;77.20;;;;;;4976085;28;20181;-84
2022/07/14 12:25:32;;;;;;;3.92;1.10;;;23.30;77.30;;;;;;4975733;28;20195;-86
2022/07/14 12:27:59;;;;;;;5.68;0.80;;;23.50;78.10;;;;;;4970856;28;20197;-87
2022/07/14 12:30:41;;;;;;;4.90;0.82;;;23.70;77.30;;;;;;4976916;28;20180;-83
2022/07/14 12:33:07;;;;;;;2.70;0.70;;;24.10;77.60;;;;;;4976917;28;20199;-84
2022/07/14 12:35:33;;;;;;;4.20;0.98;;;24.00;75.00;;;;;;4976675;28;20267;-84
2022/07/14 12:37:59;;;;;;;3.25;0.68;;;24.00;76.60;;;;;;4974598;28;20184;-85
2022/07/14 12:40:25;;;;;;;3.05;0.77;;;24.20;78.50;;;;;;4981675;28;20186;-85
2022/07/14 12:42:51;;;;;;;3.25;0.70;;;24.50;75.40;;;;;;4959130;28;20189;-85
2022/07/14 12:45:17;;;;;;;2.15;0.70;;;24.50;74.20;;;;;;4957229;28;20180;-85
2022/07/14 12:47:50;;;;;;;1.50;0.57;;;24.10;74.30;;;;;;4956319;28;20225;-87
2022/07/14 12:50:21;;;;;;;3.03;0.80;;;24.10;75.70;;;;;;4956501;29;20458;-84
2022/07/14 12:52:57;;;;;;;3.80;0.90;;;24.20;73.40;;;;;;4956101;29;20178;-83
2022/07/14 12:55:57;;;;;;;3.47;0.80;;;24.20;75.50;;;;;;4956041;29;20266;-86
2022/07/14 12:58:28;;;;;;;1.58;0.60;;;24.30;73.70;;;;;;4961661;28;20195;-85
2022/07/14 13:00:53;;;;;;;1.42;0.45;;;24.30;74.50;;;;;;4976098;28;20188;-85
2022/07/14 13:03:19;;;;;;;2.63;0.70;;;24.40;74.60;;;;;;4975489;28;20184;-86
2022/07/14 13:05:56;;;;;;;3.03;0.70;;;24.40;74.30;;;;;;4975333;28;20208;-85